Zawiyat Shammas, Egypt
Current Conditions -  °F | °C
As of 6:00 PM on Sunday 25 Jan 2015 (Local Time) from HEMM Reporting Station
Clear Clear  
Wind Chill: 16°   Ceiling: Unl
Heat Index: 16°   Visibility: 6mi
Dew Point:   Wind: 5mph
Humidity: 55%   Direction: 10°N
Pressure: 30.03"   Gusts: NA
Location:  31.52°N, 26.4°E
Report Text: HEMM 251600Z 01004KT CAVOK 16/07 Q1017 NOSIG
Loading
Personal Weather Stations






























Interactive Weather Map New forecast layout! Learn more

10-Day Weather Forecast

Advertisements
Track Severe Weather on mobile